sensor_id;sensor_type;location;lat;lon;timestamp;temperature;humidity
42663;DHT22;44330;51.360;6.686;2023-03-23T00:02:11;13.10;1.00
42663;DHT22;44330;51.360;6.686;2023-03-23T00:04:37;13.00;1.00
42663;DHT22;44330;51.360;6.686;2023-03-23T00:07:02;13.00;1.00
42663;DHT22;44330;51.360;6.686;2023-03-23T00:09:28;13.00;1.00
42663;DHT22;44330;51.360;6.686;2023-03-23T00:11:55;13.00;1.00
42663;DHT22;44330;51.360;6.686;2023-03-23T00:14:23;13.10;1.00
42663;DHT22;44330;51.360;6.686;2023-03-23T00:16:49;13.10;1.00
42663;DHT22;44330;51.360;6.686;2023-03-23T00:19:16;13.00;1.00
42663;DHT22;44330;51.360;6.686;2023-03-23T00:21:44;13.00;1.00
42663;DHT22;44330;51.360;6.686;2023-03-23T00:24:17;12.90;1.00
42663;DHT22;44330;51.360;6.686;2023-03-23T00:26:45;12.90;1.00
42663;DHT22;44330;51.360;6.686;2023-03-23T00:29:15;12.80;1.00
42663;DHT22;44330;51.360;6.686;2023-03-23T00:31:42;12.80;4.80
42663;DHT22;44330;51.360;6.686;2023-03-23T00:34:12;12.80;8.10
42663;DHT22;44330;51.360;6.686;2023-03-23T00:36:38;12.80;8.30
42663;DHT22;44330;51.360;6.686;2023-03-23T00:39:08;12.80;9.20
42663;DHT22;44330;51.360;6.686;2023-03-23T00:41:33;12.80;12.20
42663;DHT22;44330;51.360;6.686;2023-03-23T00:44:01;12.70;15.60
42663;DHT22;44330;51.360;6.686;2023-03-23T00:46:27;12.70;13.10
42663;DHT22;44330;51.360;6.686;2023-03-23T00:48:54;12.80;15.20
42663;DHT22;44330;51.360;6.686;2023-03-23T00:51:20;12.80;13.00
42663;DHT22;44330;51.360;6.686;2023-03-23T00:53:46;12.80;14.30
42663;DHT22;44330;51.360;6.686;2023-03-23T00:56:12;12.70;14.10
42663;DHT22;44330;51.360;6.686;2023-03-23T00:58:38;12.70;17.30
42663;DHT22;44330;51.360;6.686;2023-03-23T01:01:04;12.80;11.30
42663;DHT22;44330;51.360;6.686;2023-03-23T01:03:30;12.80;11.20
42663;DHT22;44330;51.360;6.686;2023-03-23T01:05:56;12.70;15.30
42663;DHT22;44330;51.360;6.686;2023-03-23T01:08:23;12.70;12.30
42663;DHT22;44330;51.360;6.686;2023-03-23T01:10:49;12.80;9.40
42663;DHT22;44330;51.360;6.686;2023-03-23T01:13:16;12.80;7.60
42663;DHT22;44330;51.360;6.686;2023-03-23T01:15:42;12.70;13.30
42663;DHT22;44330;51.360;6.686;2023-03-23T01:18:09;12.70;14.00
42663;DHT22;44330;51.360;6.686;2023-03-23T01:20:35;12.70;12.50
42663;DHT22;44330;51.360;6.686;2023-03-23T01:23:02;12.70;10.40
42663;DHT22;44330;51.360;6.686;2023-03-23T01:25:29;12.70;11.40
42663;DHT22;44330;51.360;6.686;2023-03-23T01:27:55;12.80;10.30
42663;DHT22;44330;51.360;6.686;2023-03-23T01:30:22;12.70;12.60
42663;DHT22;44330;51.360;6.686;2023-03-23T01:32:48;12.80;6.40
42663;DHT22;44330;51.360;6.686;2023-03-23T01:35:13;12.90;3.00
42663;DHT22;44330;51.360;6.686;2023-03-23T01:37:39;12.80;1.00
42663;DHT22;44330;51.360;6.686;2023-03-23T01:40:06;12.80;9.30
42663;DHT22;44330;51.360;6.686;2023-03-23T01:42:34;12.80;5.10
42663;DHT22;44330;51.360;6.686;2023-03-23T01:45:25;12.80;1.80
42663;DHT22;44330;51.360;6.686;2023-03-23T01:47:56;12.90;3.00
42663;DHT22;44330;51.360;6.686;2023-03-23T01:50:25;12.90;4.00
42663;DHT22;44330;51.360;6.686;2023-03-23T01:52:53;12.80;4.70
42663;DHT22;44330;51.360;6.686;2023-03-23T01:55:21;12.80;6.00
42663;DHT22;44330;51.360;6.686;2023-03-23T01:57:47;12.80;9.90
42663;DHT22;44330;51.360;6.686;2023-03-23T02:00:14;12.80;10.10
42663;DHT22;44330;51.360;6.686;2023-03-23T02:02:47;12.80;13.80
42663;DHT22;44330;51.360;6.686;2023-03-23T02:05:29;12.80;12.80
42663;DHT22;44330;51.360;6.686;2023-03-23T02:07:57;12.80;17.30
42663;DHT22;44330;51.360;6.686;2023-03-23T02:10:25;12.70;22.40
42663;DHT22;44330;51.360;6.686;2023-03-23T02:12:50;12.70;23.90
42663;DHT22;44330;51.360;6.686;2023-03-23T02:15:16;12.90;25.20
42663;DHT22;44330;51.360;6.686;2023-03-23T02:17:50;12.80;28.60
42663;DHT22;44330;51.360;6.686;2023-03-23T02:20:38;12.70;30.70
42663;DHT22;44330;51.360;6.686;2023-03-23T02:26:12;12.60;36.50
42663;DHT22;44330;51.360;6.686;2023-03-23T02:34:20;12.50;44.70
42663;DHT22;44330;51.360;6.686;2023-03-23T02:37:11;12.50;48.00
42663;DHT22;44330;51.360;6.686;2023-03-23T02:39:48;12.40;50.30
42663;DHT22;44330;51.360;6.686;2023-03-23T02:42:22;12.40;52.50
42663;DHT22;44330;51.360;6.686;2023-03-23T02:44:49;12.40;52.70
42663;DHT22;44330;51.360;6.686;2023-03-23T02:47:21;12.40;51.70
42663;DHT22;44330;51.360;6.686;2023-03-23T02:49:51;12.40;52.10
42663;DHT22;44330;51.360;6.686;2023-03-23T02:52:22;12.20;53.90
42663;DHT22;44330;51.360;6.686;2023-03-23T02:54:49;12.30;53.80
42663;DHT22;44330;51.360;6.686;2023-03-23T02:57:16;12.30;55.00
42663;DHT22;44330;51.360;6.686;2023-03-23T02:59:42;12.20;56.10
42663;DHT22;44330;51.360;6.686;2023-03-23T03:02:16;12.20;55.10
42663;DHT22;44330;51.360;6.686;2023-03-23T03:05:09;12.30;54.10
42663;DHT22;44330;51.360;6.686;2023-03-23T03:15:36;12.30;50.50
42663;DHT22;44330;51.360;6.686;2023-03-23T03:18:13;12.30;47.70
42663;DHT22;44330;51.360;6.686;2023-03-23T03:20:45;12.30;46.90
42663;DHT22;44330;51.360;6.686;2023-03-23T03:23:13;12.30;45.90
42663;DHT22;44330;51.360;6.686;2023-03-23T03:25:40;12.30;48.70
42663;DHT22;44330;51.360;6.686;2023-03-23T03:28:14;12.40;44.60
42663;DHT22;44330;51.360;6.686;2023-03-23T03:30:41;12.40;41.20
42663;DHT22;44330;51.360;6.686;2023-03-23T03:33:10;12.40;39.20
42663;DHT22;44330;51.360;6.686;2023-03-23T03:35:38;12.40;38.20
42663;DHT22;44330;51.360;6.686;2023-03-23T03:38:08;12.40;36.20
42663;DHT22;44330;51.360;6.686;2023-03-23T03:40:34;12.40;35.10
42663;DHT22;44330;51.360;6.686;2023-03-23T03:43:00;12.50;35.50
42663;DHT22;44330;51.360;6.686;2023-03-23T03:45:31;12.50;31.90
42663;DHT22;44330;51.360;6.686;2023-03-23T03:47:57;12.60;32.00
42663;DHT22;44330;51.360;6.686;2023-03-23T03:50:25;12.60;30.20
42663;DHT22;44330;51.360;6.686;2023-03-23T03:52:51;12.50;30.30
42663;DHT22;44330;51.360;6.686;2023-03-23T03:55:18;12.60;30.10
42663;DHT22;44330;51.360;6.686;2023-03-23T03:57:46;12.60;29.70
42663;DHT22;44330;51.360;6.686;2023-03-23T04:00:12;12.60;29.60
42663;DHT22;44330;51.360;6.686;2023-03-23T04:02:45;12.60;31.50
42663;DHT22;44330;51.360;6.686;2023-03-23T04:05:13;12.60;32.40
42663;DHT22;44330;51.360;6.686;2023-03-23T04:07:39;12.50;33.80
42663;DHT22;44330;51.360;6.686;2023-03-23T04:10:07;12.60;35.00
42663;DHT22;44330;51.360;6.686;2023-03-23T04:12:34;12.60;32.80
42663;DHT22;44330;51.360;6.686;2023-03-23T04:15:00;12.60;31.30
42663;DHT22;44330;51.360;6.686;2023-03-23T04:17:25;12.60;32.90
42663;DHT22;44330;51.360;6.686;2023-03-23T04:19:52;12.60;33.40
42663;DHT22;44330;51.360;6.686;2023-03-23T04:22:18;12.60;33.10
42663;DHT22;44330;51.360;6.686;2023-03-23T04:24:43;12.60;32.50
42663;DHT22;44330;51.360;6.686;2023-03-23T04:27:09;12.60;32.00
42663;DHT22;44330;51.360;6.686;2023-03-23T04:29:38;12.70;29.70
42663;DHT22;44330;51.360;6.686;2023-03-23T04:32:04;12.70;30.00
42663;DHT22;44330;51.360;6.686;2023-03-23T04:34:30;12.60;31.40
42663;DHT22;44330;51.360;6.686;2023-03-23T04:36:58;12.60;32.50
42663;DHT22;44330;51.360;6.686;2023-03-23T04:39:24;12.60;30.50
42663;DHT22;44330;51.360;6.686;2023-03-23T04:41:49;12.70;28.60
42663;DHT22;44330;51.360;6.686;2023-03-23T04:44:15;12.70;22.80
42663;DHT22;44330;51.360;6.686;2023-03-23T04:46:43;12.80;22.30
42663;DHT22;44330;51.360;6.686;2023-03-23T04:49:10;12.80;21.20
42663;DHT22;44330;51.360;6.686;2023-03-23T04:51:36;12.80;21.10
42663;DHT22;44330;51.360;6.686;2023-03-23T04:54:04;12.80;16.50
42663;DHT22;44330;51.360;6.686;2023-03-23T04:56:30;12.80;18.00
42663;DHT22;44330;51.360;6.686;2023-03-23T04:58:55;12.80;16.50
42663;DHT22;44330;51.360;6.686;2023-03-23T05:01:21;12.80;18.00
42663;DHT22;44330;51.360;6.686;2023-03-23T05:03:46;12.80;16.30
42663;DHT22;44330;51.360;6.686;2023-03-23T05:06:13;12.70;16.50
42663;DHT22;44330;51.360;6.686;2023-03-23T05:08:38;12.70;19.60
42663;DHT22;44330;51.360;6.686;2023-03-23T05:11:05;12.70;18.60
42663;DHT22;44330;51.360;6.686;2023-03-23T05:13:32;12.70;13.70
42663;DHT22;44330;51.360;6.686;2023-03-23T05:15:58;12.70;13.30
42663;DHT22;44330;51.360;6.686;2023-03-23T05:18:23;12.70;15.10
42663;DHT22;44330;51.360;6.686;2023-03-23T05:20:49;12.70;12.00
42663;DHT22;44330;51.360;6.686;2023-03-23T05:23:18;12.70;12.80
42663;DHT22;44330;51.360;6.686;2023-03-23T05:25:55;12.80;8.90
42663;DHT22;44330;51.360;6.686;2023-03-23T05:28:21;12.70;11.10
42663;DHT22;44330;51.360;6.686;2023-03-23T05:30:48;12.80;5.30
42663;DHT22;44330;51.360;6.686;2023-03-23T05:33:13;12.80;5.90
42663;DHT22;44330;51.360;6.686;2023-03-23T05:35:39;12.80;8.30
42663;DHT22;44330;51.360;6.686;2023-03-23T05:38:04;12.80;6.40
42663;DHT22;44330;51.360;6.686;2023-03-23T05:40:30;12.80;5.90
42663;DHT22;44330;51.360;6.686;2023-03-23T05:42:56;12.70;8.00
42663;DHT22;44330;51.360;6.686;2023-03-23T05:45:24;12.80;3.30
42663;DHT22;44330;51.360;6.686;2023-03-23T05:47:50;12.80;3.80
42663;DHT22;44330;51.360;6.686;2023-03-23T05:50:16;12.80;1.00
42663;DHT22;44330;51.360;6.686;2023-03-23T05:52:43;12.80;1.00
42663;DHT22;44330;51.360;6.686;2023-03-23T05:55:09;12.90;2.90
42663;DHT22;44330;51.360;6.686;2023-03-23T05:57:35;12.80;4.40
42663;DHT22;44330;51.360;6.686;2023-03-23T06:00:01;12.70;7.40
42663;DHT22;44330;51.360;6.686;2023-03-23T06:02:39;12.80;3.80
42663;DHT22;44330;51.360;6.686;2023-03-23T06:05:05;12.80;1.00
42663;DHT22;44330;51.360;6.686;2023-03-23T06:07:32;12.80;1.00
42663;DHT22;44330;51.360;6.686;2023-03-23T06:09:57;12.80;1.00
42663;DHT22;44330;51.360;6.686;2023-03-23T06:12:23;12.90;1.00
42663;DHT22;44330;51.360;6.686;2023-03-23T06:14:49;12.90;1.00
42663;DHT22;44330;51.360;6.686;2023-03-23T06:17:16;12.80;1.00
42663;DHT22;44330;51.360;6.686;2023-03-23T06:19:42;12.80;1.00
42663;DHT22;44330;51.360;6.686;2023-03-23T06:22:09;12.80;1.00
42663;DHT22;44330;51.360;6.686;2023-03-23T06:24:34;12.80;1.00
42663;DHT22;44330;51.360;6.686;2023-03-23T06:27:00;12.90;1.00
42663;DHT22;44330;51.360;6.686;2023-03-23T06:29:26;12.90;1.00
42663;DHT22;44330;51.360;6.686;2023-03-23T06:31:57;12.90;1.00
42663;DHT22;44330;51.360;6.686;2023-03-23T06:34:24;12.80;1.00
42663;DHT22;44330;51.360;6.686;2023-03-23T06:36:49;12.80;1.00
42663;DHT22;44330;51.360;6.686;2023-03-23T06:39:15;12.90;1.00
42663;DHT22;44330;51.360;6.686;2023-03-23T06:41:41;12.90;1.00
42663;DHT22;44330;51.360;6.686;2023-03-23T06:44:07;12.90;1.00
42663;DHT22;44330;51.360;6.686;2023-03-23T06:46:34;13.00;1.00
42663;DHT22;44330;51.360;6.686;2023-03-23T06:48:59;13.00;1.00
42663;DHT22;44330;51.360;6.686;2023-03-23T06:51:25;13.00;1.00
42663;DHT22;44330;51.360;6.686;2023-03-23T06:53:50;13.00;1.00
42663;DHT22;44330;51.360;6.686;2023-03-23T06:56:16;13.10;1.00
42663;DHT22;44330;51.360;6.686;2023-03-23T06:58:42;13.00;1.00
42663;DHT22;44330;51.360;6.686;2023-03-23T07:01:08;13.00;1.00
42663;DHT22;44330;51.360;6.686;2023-03-23T07:03:35;13.10;1.00
42663;DHT22;44330;51.360;6.686;2023-03-23T07:06:02;13.10;1.00
42663;DHT22;44330;51.360;6.686;2023-03-23T07:08:28;13.10;1.00
42663;DHT22;44330;51.360;6.686;2023-03-23T07:10:55;13.10;1.00
42663;DHT22;44330;51.360;6.686;2023-03-23T07:13:21;13.20;99.90
42663;DHT22;44330;51.360;6.686;2023-03-23T07:15:47;13.10;99.90
42663;DHT22;44330;51.360;6.686;2023-03-23T07:18:14;13.10;99.90
42663;DHT22;44330;51.360;6.686;2023-03-23T07:20:39;13.10;99.90
42663;DHT22;44330;51.360;6.686;2023-03-23T07:23:06;13.10;1.00
42663;DHT22;44330;51.360;6.686;2023-03-23T07:25:32;13.10;99.90
42663;DHT22;44330;51.360;6.686;2023-03-23T07:27:59;13.10;99.90
42663;DHT22;44330;51.360;6.686;2023-03-23T07:30:25;13.10;99.90
42663;DHT22;44330;51.360;6.686;2023-03-23T07:32:51;13.20;99.90
42663;DHT22;44330;51.360;6.686;2023-03-23T07:35:17;13.20;99.90
42663;DHT22;44330;51.360;6.686;2023-03-23T07:37:43;13.30;99.90
42663;DHT22;44330;51.360;6.686;2023-03-23T07:40:09;13.30;99.90
42663;DHT22;44330;51.360;6.686;2023-03-23T07:42:41;13.30;99.90
42663;DHT22;44330;51.360;6.686;2023-03-23T07:45:07;13.30;99.90
42663;DHT22;44330;51.360;6.686;2023-03-23T07:47:33;13.30;99.90
42663;DHT22;44330;51.360;6.686;2023-03-23T07:49:58;13.30;99.90
42663;DHT22;44330;51.360;6.686;2023-03-23T07:52:24;13.30;99.90
42663;DHT22;44330;51.360;6.686;2023-03-23T07:54:52;13.30;99.90
42663;DHT22;44330;51.360;6.686;2023-03-23T07:57:18;13.30;99.90
42663;DHT22;44330;51.360;6.686;2023-03-23T07:59:43;13.30;99.90
42663;DHT22;44330;51.360;6.686;2023-03-23T08:02:09;13.30;99.90
42663;DHT22;44330;51.360;6.686;2023-03-23T08:04:35;13.40;99.90
42663;DHT22;44330;51.360;6.686;2023-03-23T08:07:03;13.40;99.90
42663;DHT22;44330;51.360;6.686;2023-03-23T08:09:29;13.40;99.90
42663;DHT22;44330;51.360;6.686;2023-03-23T08:11:55;13.40;99.90
42663;DHT22;44330;51.360;6.686;2023-03-23T08:14:21;13.50;99.90
42663;DHT22;44330;51.360;6.686;2023-03-23T08:16:46;13.50;99.90
42663;DHT22;44330;51.360;6.686;2023-03-23T08:19:13;13.60;81.80
42663;DHT22;44330;51.360;6.686;2023-03-23T08:21:39;13.60;83.90
42663;DHT22;44330;51.360;6.686;2023-03-23T08:24:05;13.60;27.70
42663;DHT22;44330;51.360;6.686;2023-03-23T08:26:31;13.70;1.00
42663;DHT22;44330;51.360;6.686;2023-03-23T08:28:57;13.80;1.00
42663;DHT22;44330;51.360;6.686;2023-03-23T08:31:23;13.80;1.00
42663;DHT22;44330;51.360;6.686;2023-03-23T08:33:49;13.80;1.00
42663;DHT22;44330;51.360;6.686;2023-03-23T08:36:14;13.90;99.90
42663;DHT22;44330;51.360;6.686;2023-03-23T08:38:40;14.10;99.90
42663;DHT22;44330;51.360;6.686;2023-03-23T08:41:06;14.10;99.90
42663;DHT22;44330;51.360;6.686;2023-03-23T08:43:34;14.20;99.90
42663;DHT22;44330;51.360;6.686;2023-03-23T08:46:00;14.20;99.90
42663;DHT22;44330;51.360;6.686;2023-03-23T08:48:32;14.20;85.10
42663;DHT22;44330;51.360;6.686;2023-03-23T08:50:59;14.20;86.90
42663;DHT22;44330;51.360;6.686;2023-03-23T08:53:25;14.40;1.00
42663;DHT22;44330;51.360;6.686;2023-03-23T08:55:51;14.30;1.00
42663;DHT22;44330;51.360;6.686;2023-03-23T08:58:16;14.30;99.90
42663;DHT22;44330;51.360;6.686;2023-03-23T09:00:43;14.30;99.90
42663;DHT22;44330;51.360;6.686;2023-03-23T09:03:08;14.20;99.90
42663;DHT22;44330;51.360;6.686;2023-03-23T09:05:34;14.20;99.90
42663;DHT22;44330;51.360;6.686;2023-03-23T09:08:00;14.20;99.90
42663;DHT22;44330;51.360;6.686;2023-03-23T09:10:27;14.10;99.90
42663;DHT22;44330;51.360;6.686;2023-03-23T09:12:54;14.10;99.90
42663;DHT22;44330;51.360;6.686;2023-03-23T09:15:20;14.10;99.90
42663;DHT22;44330;51.360;6.686;2023-03-23T09:17:48;14.00;99.90
42663;DHT22;44330;51.360;6.686;2023-03-23T09:20:17;14.10;99.90
42663;DHT22;44330;51.360;6.686;2023-03-23T09:22:47;14.20;99.90
42663;DHT22;44330;51.360;6.686;2023-03-23T09:25:15;14.10;99.90
42663;DHT22;44330;51.360;6.686;2023-03-23T09:27:44;14.10;99.90
42663;DHT22;44330;51.360;6.686;2023-03-23T09:30:12;14.00;99.90
42663;DHT22;44330;51.360;6.686;2023-03-23T09:32:38;14.00;99.90
42663;DHT22;44330;51.360;6.686;2023-03-23T09:35:06;14.10;99.90
42663;DHT22;44330;51.360;6.686;2023-03-23T09:37:34;14.10;1.00
42663;DHT22;44330;51.360;6.686;2023-03-23T09:40:02;14.00;99.90
42663;DHT22;44330;51.360;6.686;2023-03-23T09:42:41;13.60;99.90
42663;DHT22;44330;51.360;6.686;2023-03-23T09:45:38;13.20;1.00
42663;DHT22;44330;51.360;6.686;2023-03-23T09:50:34;12.50;10.80
42663;DHT22;44330;51.360;6.686;2023-03-23T09:53:09;12.30;16.10
42663;DHT22;44330;51.360;6.686;2023-03-23T09:55:36;12.20;35.80
42663;DHT22;44330;51.360;6.686;2023-03-23T09:58:24;12.20;41.30
42663;DHT22;44330;51.360;6.686;2023-03-23T10:01:11;12.00;38.70
42663;DHT22;44330;51.360;6.686;2023-03-23T10:03:43;11.90;51.90
42663;DHT22;44330;51.360;6.686;2023-03-23T10:06:11;11.80;56.60
42663;DHT22;44330;51.360;6.686;2023-03-23T10:08:40;11.80;58.90
42663;DHT22;44330;51.360;6.686;2023-03-23T10:11:19;11.70;59.40
42663;DHT22;44330;51.360;6.686;2023-03-23T10:14:00;11.60;60.50
42663;DHT22;44330;51.360;6.686;2023-03-23T10:19:27;11.50;66.20
42663;DHT22;44330;51.360;6.686;2023-03-23T10:22:32;11.50;66.20
42663;DHT22;44330;51.360;6.686;2023-03-23T10:25:18;11.50;68.50
42663;DHT22;44330;51.360;6.686;2023-03-23T10:28:08;11.40;67.50
42663;DHT22;44330;51.360;6.686;2023-03-23T10:30:50;11.40;69.50
42663;DHT22;44330;51.360;6.686;2023-03-23T10:36:21;11.30;73.50
42663;DHT22;44330;51.360;6.686;2023-03-23T10:41:26;11.30;69.20
42663;DHT22;44330;51.360;6.686;2023-03-23T10:43:52;11.30;69.90
42663;DHT22;44330;51.360;6.686;2023-03-23T10:46:25;11.20;67.80
42663;DHT22;44330;51.360;6.686;2023-03-23T10:48:53;11.20;66.80
42663;DHT22;44330;51.360;6.686;2023-03-23T10:51:23;11.20;70.90
42663;DHT22;44330;51.360;6.686;2023-03-23T10:53:57;11.10;68.60
42663;DHT22;44330;51.360;6.686;2023-03-23T10:56:26;11.10;70.60
42663;DHT22;44330;51.360;6.686;2023-03-23T10:58:53;11.10;73.00
42663;DHT22;44330;51.360;6.686;2023-03-23T11:01:28;11.10;73.70
42663;DHT22;44330;51.360;6.686;2023-03-23T11:03:55;11.10;71.80
42663;DHT22;44330;51.360;6.686;2023-03-23T11:06:32;11.20;73.70
42663;DHT22;44330;51.360;6.686;2023-03-23T11:09:10;11.10;72.90
42663;DHT22;44330;51.360;6.686;2023-03-23T11:11:39;11.10;74.20
42663;DHT22;44330;51.360;6.686;2023-03-23T11:14:24;11.20;75.90
42663;DHT22;44330;51.360;6.686;2023-03-23T11:16:55;11.30;75.70
42663;DHT22;44330;51.360;6.686;2023-03-23T11:19:26;11.20;76.90
42663;DHT22;44330;51.360;6.686;2023-03-23T11:21:54;11.20;78.30
42663;DHT22;44330;51.360;6.686;2023-03-23T11:24:25;11.20;77.80
42663;DHT22;44330;51.360;6.686;2023-03-23T11:26:52;11.30;77.40
42663;DHT22;44330;51.360;6.686;2023-03-23T11:29:26;11.30;77.90
42663;DHT22;44330;51.360;6.686;2023-03-23T11:34:30;11.40;83.60
42663;DHT22;44330;51.360;6.686;2023-03-23T11:37:05;11.50;85.90
42663;DHT22;44330;51.360;6.686;2023-03-23T11:39:46;11.60;87.30
42663;DHT22;44330;51.360;6.686;2023-03-23T11:42:22;11.70;85.20
42663;DHT22;44330;51.360;6.686;2023-03-23T11:44:48;11.80;86.10
42663;DHT22;44330;51.360;6.686;2023-03-23T11:50:08;11.90;83.50
42663;DHT22;44330;51.360;6.686;2023-03-23T11:55:28;11.90;85.50
42663;DHT22;44330;51.360;6.686;2023-03-23T11:57:59;12.00;83.70
42663;DHT22;44330;51.360;6.686;2023-03-23T12:00:25;12.00;85.80
42663;DHT22;44330;51.360;6.686;2023-03-23T12:06:05;12.00;87.30
42663;DHT22;44330;51.360;6.686;2023-03-23T12:08:57;12.00;87.30
42663;DHT22;44330;51.360;6.686;2023-03-23T12:11:59;12.10;86.40
42663;DHT22;44330;51.360;6.686;2023-03-23T12:14:33;12.10;87.00
42663;DHT22;44330;51.360;6.686;2023-03-23T12:17:13;12.20;87.00
42663;DHT22;44330;51.360;6.686;2023-03-23T12:39:54;12.60;88.40
42663;DHT22;44330;51.360;6.686;2023-03-23T12:47:46;12.60;88.00
42663;DHT22;44330;51.360;6.686;2023-03-23T12:58:15;12.70;87.60
42663;DHT22;44330;51.360;6.686;2023-03-23T13:00:55;12.80;85.90
42663;DHT22;44330;51.360;6.686;2023-03-23T13:06:03;12.80;85.00
42663;DHT22;44330;51.360;6.686;2023-03-23T13:08:40;13.00;86.20
42663;DHT22;44330;51.360;6.686;2023-03-23T13:11:24;13.10;81.30
42663;DHT22;44330;51.360;6.686;2023-03-23T13:13:55;13.20;82.60
42663;DHT22;44330;51.360;6.686;2023-03-23T13:19:16;13.20;80.80
42663;DHT22;44330;51.360;6.686;2023-03-23T13:22:00;13.20;80.80
42663;DHT22;44330;51.360;6.686;2023-03-23T13:24:30;13.30;82.20
42663;DHT22;44330;51.360;6.686;2023-03-23T13:26:58;13.20;82.60
42663;DHT22;44330;51.360;6.686;2023-03-23T13:29:27;13.30;81.20
42663;DHT22;44330;51.360;6.686;2023-03-23T13:32:06;13.30;81.70
42663;DHT22;44330;51.360;6.686;2023-03-23T13:34:32;13.30;83.00
42663;DHT22;44330;51.360;6.686;2023-03-23T13:47:26;13.70;82.10
42663;DHT22;44330;51.360;6.686;2023-03-23T14:03:24;14.10;77.90
42663;DHT22;44330;51.360;6.686;2023-03-23T14:11:24;14.10;77.10
42663;DHT22;44330;51.360;6.686;2023-03-23T14:14:03;14.30;80.00
42663;DHT22;44330;51.360;6.686;2023-03-23T14:16:39;14.50;79.90
42663;DHT22;44330;51.360;6.686;2023-03-23T14:19:24;14.80;71.70
42663;DHT22;44330;51.360;6.686;2023-03-23T14:21:53;15.00;73.10
42663;DHT22;44330;51.360;6.686;2023-03-23T14:26:49;15.30;64.20
42663;DHT22;44330;51.360;6.686;2023-03-23T14:29:18;15.40;62.40
42663;DHT22;44330;51.360;6.686;2023-03-23T14:31:47;15.50;58.70
42663;DHT22;44330;51.360;6.686;2023-03-23T14:34:16;15.50;56.90
42663;DHT22;44330;51.360;6.686;2023-03-23T14:36:44;15.40;57.60
42663;DHT22;44330;51.360;6.686;2023-03-23T14:39:21;15.30;59.70
42663;DHT22;44330;51.360;6.686;2023-03-23T14:41:48;15.20;58.00
42663;DHT22;44330;51.360;6.686;2023-03-23T14:44:21;15.20;54.90
42663;DHT22;44330;51.360;6.686;2023-03-23T14:46:47;15.20;54.10
42663;DHT22;44330;51.360;6.686;2023-03-23T14:49:16;15.10;52.60
42663;DHT22;44330;51.360;6.686;2023-03-23T14:51:53;15.00;55.50
42663;DHT22;44330;51.360;6.686;2023-03-23T14:54:24;15.00;53.40
42663;DHT22;44330;51.360;6.686;2023-03-23T14:56:50;15.00;52.70
42663;DHT22;44330;51.360;6.686;2023-03-23T14:59:16;15.10;49.50
42663;DHT22;44330;51.360;6.686;2023-03-23T15:01:42;15.20;45.10
42663;DHT22;44330;51.360;6.686;2023-03-23T15:04:20;15.30;42.30
42663;DHT22;44330;51.360;6.686;2023-03-23T15:06:51;15.40;38.10
42663;DHT22;44330;51.360;6.686;2023-03-23T15:09:19;15.50;44.20
42663;DHT22;44330;51.360;6.686;2023-03-23T15:11:56;15.70;29.50
42663;DHT22;44330;51.360;6.686;2023-03-23T15:14:27;15.70;28.20
42663;DHT22;44330;51.360;6.686;2023-03-23T15:16:54;15.70;29.30
42663;DHT22;44330;51.360;6.686;2023-03-23T15:19:41;15.70;25.10
42663;DHT22;44330;51.360;6.686;2023-03-23T15:22:22;15.70;1.00
42663;DHT22;44330;51.360;6.686;2023-03-23T15:24:49;15.80;1.00
42663;DHT22;44330;51.360;6.686;2023-03-23T15:27:23;15.90;1.00
42663;DHT22;44330;51.360;6.686;2023-03-23T15:29:54;15.90;1.00
42663;DHT22;44330;51.360;6.686;2023-03-23T15:32:22;16.00;1.00
42663;DHT22;44330;51.360;6.686;2023-03-23T15:34:48;15.90;1.00
42663;DHT22;44330;51.360;6.686;2023-03-23T15:37:21;15.90;1.00
42663;DHT22;44330;51.360;6.686;2023-03-23T15:39:47;15.90;1.00
42663;DHT22;44330;51.360;6.686;2023-03-23T15:42:31;15.90;1.00
42663;DHT22;44330;51.360;6.686;2023-03-23T15:47:46;15.90;1.00
42663;DHT22;44330;51.360;6.686;2023-03-23T15:52:53;15.70;1.00
42663;DHT22;44330;51.360;6.686;2023-03-23T15:55:37;15.70;1.00
42663;DHT22;44330;51.360;6.686;2023-03-23T15:58:11;15.70;1.00
42663;DHT22;44330;51.360;6.686;2023-03-23T16:00:38;15.70;1.00
42663;DHT22;44330;51.360;6.686;2023-03-23T16:03:06;15.80;1.00
42663;DHT22;44330;51.360;6.686;2023-03-23T16:05:33;15.70;1.00
42663;DHT22;44330;51.360;6.686;2023-03-23T16:07:59;15.70;1.00
42663;DHT22;44330;51.360;6.686;2023-03-23T16:10:26;15.80;1.00
42663;DHT22;44330;51.360;6.686;2023-03-23T16:12:52;15.80;1.00
42663;DHT22;44330;51.360;6.686;2023-03-23T16:15:18;15.80;1.00
42663;DHT22;44330;51.360;6.686;2023-03-23T16:17:44;15.70;1.00
42663;DHT22;44330;51.360;6.686;2023-03-23T16:20:19;15.70;1.00
42663;DHT22;44330;51.360;6.686;2023-03-23T16:22:46;15.60;1.00
42663;DHT22;44330;51.360;6.686;2023-03-23T16:25:12;15.50;1.00
42663;DHT22;44330;51.360;6.686;2023-03-23T16:27:39;15.40;1.00
42663;DHT22;44330;51.360;6.686;2023-03-23T16:30:25;15.40;1.00
42663;DHT22;44330;51.360;6.686;2023-03-23T16:32:51;15.30;1.00
42663;DHT22;44330;51.360;6.686;2023-03-23T16:35:17;15.20;1.00
42663;DHT22;44330;51.360;6.686;2023-03-23T16:37:48;15.10;1.00
42663;DHT22;44330;51.360;6.686;2023-03-23T16:40:15;15.10;1.00
42663;DHT22;44330;51.360;6.686;2023-03-23T16:42:41;15.10;1.80
42663;DHT22;44330;51.360;6.686;2023-03-23T16:45:07;15.10;1.00
42663;DHT22;44330;51.360;6.686;2023-03-23T16:47:33;15.10;1.00
42663;DHT22;44330;51.360;6.686;2023-03-23T16:49:59;15.10;1.10
42663;DHT22;44330;51.360;6.686;2023-03-23T16:52:25;15.10;5.50
42663;DHT22;44330;51.360;6.686;2023-03-23T16:54:51;15.00;5.10
42663;DHT22;44330;51.360;6.686;2023-03-23T16:57:17;15.00;4.70
42663;DHT22;44330;51.360;6.686;2023-03-23T16:59:43;15.00;7.30
42663;DHT22;44330;51.360;6.686;2023-03-23T17:02:10;15.10;1.00
42663;DHT22;44330;51.360;6.686;2023-03-23T17:04:40;15.00;2.80
42663;DHT22;44330;51.360;6.686;2023-03-23T17:07:06;14.90;1.00
42663;DHT22;44330;51.360;6.686;2023-03-23T17:09:32;15.00;1.00
42663;DHT22;44330;51.360;6.686;2023-03-23T17:11:58;15.00;1.00
42663;DHT22;44330;51.360;6.686;2023-03-23T17:14:23;14.90;1.00
42663;DHT22;44330;51.360;6.686;2023-03-23T17:16:49;14.90;1.00
42663;DHT22;44330;51.360;6.686;2023-03-23T17:19:15;14.90;1.00
42663;DHT22;44330;51.360;6.686;2023-03-23T17:21:40;14.90;1.00
42663;DHT22;44330;51.360;6.686;2023-03-23T17:24:07;14.90;1.00
42663;DHT22;44330;51.360;6.686;2023-03-23T17:26:32;14.80;1.00
42663;DHT22;44330;51.360;6.686;2023-03-23T17:28:58;14.80;1.00
42663;DHT22;44330;51.360;6.686;2023-03-23T17:31:24;14.80;1.00
42663;DHT22;44330;51.360;6.686;2023-03-23T17:33:49;14.80;1.00
42663;DHT22;44330;51.360;6.686;2023-03-23T17:36:16;14.80;1.00
42663;DHT22;44330;51.360;6.686;2023-03-23T17:38:42;14.80;1.00
42663;DHT22;44330;51.360;6.686;2023-03-23T17:41:08;14.80;1.00
42663;DHT22;44330;51.360;6.686;2023-03-23T17:43:36;14.80;1.00
42663;DHT22;44330;51.360;6.686;2023-03-23T17:46:03;14.80;1.00